Galena, Missouri
Current Conditions -  °F | °C
As of 1:35 PM on Tuesday 21 Oct 2014 (Local Time) from KFWB Reporting Station
Clear Clear  
Wind Chill: 72°   Ceiling: Unl
Heat Index: 72°   Visibility: 10mi
Dew Point: 48°   Wind: 0mph
Humidity: 43%   Direction: NA
Pressure: 30.12"   Gusts: NA
Location:  36.81°N, 93.47°W
Report Text: KFWB 211835Z AUTO 00000KT 10SM CLR 22/09 A3012 RMK AO2
Loading
Personal Weather Stations






























Interactive Weather Map
Tropical Storm Tracking
New forecast layout! Learn more

10-Day Weather Forecast

Advertisements
Track Severe Weather on mobile